Aeroporto :
LOGIN :

Iscrizione | Disclaimer

   EN    FR    IT 

 










Sommario :    VFR   VFR Marginale   IFR   IFR Intensivo   IFR Molto Intensivo
Visibilità : 
Base nubi : 
>= 8 km
>= 3000ft
5 / 8 km
1000 / 3000 ft
1500m / 5 km
500 / 1000 ft
800 / 1500m
200 / 500 ft
< 800m
< 200 ft
Simboli :   Temporali  Nebbia  Neve Forte  Precipitazioni Forti  Vento > 20 kt
SIGMETs :   Varie  Temporali  Ghiacco  Turbolenza  Onda orograficha  Ceneri Vulcaniche






- Altitudine del aeroporto : 1411 ft
- Codice IATA : ZHI


LSZG - Grenchen

ULTIMO METAR :
  • 151750Z AUTO 24005KT 2800 +RA SCT010 SCT070 11/11 Q1013

METARs OBSOLETI :
  • 151720Z 24006KT 9999 RA FEW011 SCT060 BKN100 11/11 Q1013 NOSIG
  • 151650Z 22009KT 7000 -RA FEW004 SCT025 BKN100 12/11 Q1012 NOSIG
  • 151620Z 22005KT 9999 -RA FEW004 SCT070 BKN110 12/12 Q1012 NOSIG
  • 151550Z 24005KT 6000 RA FEW018 SCT100 BKN130 12/12 Q1011 NOSIG
  • 151520Z 29004KT 4500 +RA FEW007 SCT024 12/12 Q1010 NOSIG

TAF TAF LSZG
Valido dal 15 a 15 ore il 16 a 00 ore UTC


151425Z 1515/1524 17002KT 9999 -RA SCT006 SCT024 BKN100
TEMPO 1515/1521 RA
PROB30
TEMPO 1515/1519 32015G28KT 4000 +RA BKN013
ATIS : +41 32 396 96 33



MetMap, La meteo Aeronautica in un colpo d'occhio ! - Copyright ORBIFLY Dicembre 2007 - Disclaimer

ORBIFLY MET'MAP TEAM :

Programmazione e sviluppo : Alexandra Zaïnal
Concezione e sviluppo : Baudouin d'Aumeries
Co-Programmazione e sviluppo : Marc-Olivier Méhu
Supporto tecnico e logistico : Manuel Goepfert
Aiuto per la traduzione : Arnaldo La Scala

Contatto : metmap@orbifly.com




FONTI E CREDITI :

   NOAA